Time;durP1;ratioP1;P1;durP2;ratioP2;P2;SDS_P1;SDS_P2;PMS_P1;PMS_P2;Temp;Humidity;BMP_temperature;BMP_pressure;BME280_temperature;BME280_humidity;BME280_pressure;Samples;Min_cycle;Max_cycle;Signal;HPM_P1;HPM_P2
2023/11/24 00:00:11;;;;;;;11.32;2.83;;;9.90;99.90;;;;;;5057980;28;20086;-85
2023/11/24 00:02:36;;;;;;;6.70;2.15;;;9.90;99.90;;;;;;5058335;28;20467;-85
2023/11/24 00:05:03;;;;;;;5.85;2.13;;;9.80;99.90;;;;;;5025212;28;20028;-85
2023/11/24 00:07:29;;;;;;;4.95;1.17;;;9.60;99.90;;;;;;5040993;28;20056;-86
2023/11/24 00:09:55;;;;;;;4.55;1.25;;;9.50;99.90;;;;;;5041778;28;20021;-86
2023/11/24 00:12:20;;;;;;;3.22;1.10;;;9.50;99.90;;;;;;5041630;28;20028;-86
2023/11/24 00:14:46;;;;;;;5.57;1.42;;;9.40;99.90;;;;;;5041066;28;20052;-85
2023/11/24 00:17:12;;;;;;;5.15;1.20;;;9.40;99.90;;;;;;5057554;28;20033;-85
2023/11/24 00:19:37;;;;;;;3.97;1.20;;;9.40;99.90;;;;;;5040753;28;20025;-85
2023/11/24 00:22:03;;;;;;;3.47;1.45;;;9.30;99.90;;;;;;5057719;28;20392;-85
2023/11/24 00:24:29;;;;;;;3.80;0.90;;;9.30;99.90;;;;;;5058097;28;20036;-85
2023/11/24 00:26:55;;;;;;;4.00;1.20;;;9.40;99.90;;;;;;5075782;28;20090;-86
2023/11/24 00:29:21;;;;;;;5.18;1.48;;;9.40;99.90;;;;;;5075861;28;20376;-85
2023/11/24 00:31:47;;;;;;;7.20;1.73;;;9.40;99.90;;;;;;5024923;28;20456;-86
2023/11/24 00:34:14;;;;;;;7.00;1.95;;;9.40;99.90;;;;;;5059441;28;20032;-86
2023/11/24 00:36:41;;;;;;;3.83;1.10;;;9.40;99.90;;;;;;5081928;28;20033;-84
2023/11/24 00:39:07;;;;;;;4.57;1.30;;;9.40;99.90;;;;;;5065817;28;20072;-84
2023/11/24 00:41:33;;;;;;;2.58;1.05;;;9.40;99.90;;;;;;5065264;28;20032;-86
2023/11/24 00:44:01;;;;;;;5.78;1.85;;;9.40;99.90;;;;;;5041640;28;20452;-86
2023/11/24 00:46:28;;;;;;;5.03;1.85;;;9.40;99.90;;;;;;5058474;28;20028;-86
2023/11/24 00:48:53;;;;;;;4.57;1.58;;;9.40;99.90;;;;;;5075021;28;20062;-85
2023/11/24 00:51:19;;;;;;;5.47;1.50;;;9.40;99.90;;;;;;5040935;28;20033;-86
2023/11/24 00:53:45;;;;;;;6.18;1.50;;;9.50;99.90;;;;;;5024097;28;20031;-87
2023/11/24 00:56:11;;;;;;;4.68;1.40;;;9.50;99.90;;;;;;5057062;28;20150;-85
2023/11/24 00:58:37;;;;;;;6.85;1.48;;;9.50;99.90;;;;;;5040697;28;20021;-86
2023/11/24 01:01:04;;;;;;;5.57;2.10;;;9.50;99.90;;;;;;5075283;28;20032;-85
2023/11/24 01:03:30;;;;;;;8.00;1.90;;;9.50;99.90;;;;;;5056966;28;20024;-86
2023/11/24 01:05:58;;;;;;;5.15;1.20;;;9.50;99.90;;;;;;5056619;28;20032;-86
2023/11/24 01:08:25;;;;;;;6.00;1.80;;;9.50;99.90;;;;;;5074597;28;20072;-85
2023/11/24 01:10:52;;;;;;;8.80;2.08;;;9.50;99.90;;;;;;5056607;28;20538;-86
2023/11/24 01:13:18;;;;;;;4.45;1.38;;;9.60;99.90;;;;;;5040203;28;20036;-85
2023/11/24 01:15:43;;;;;;;7.20;1.55;;;9.60;99.90;;;;;;5039632;28;20032;-86
2023/11/24 01:18:09;;;;;;;5.50;1.48;;;9.60;99.90;;;;;;5056934;28;20046;-85
2023/11/24 01:20:35;;;;;;;8.52;1.45;;;9.50;99.90;;;;;;5023454;28;20032;-85
2023/11/24 01:23:00;;;;;;;6.90;1.77;;;9.50;99.90;;;;;;5023334;28;20365;-85
2023/11/24 01:25:27;;;;;;;7.88;2.10;;;9.50;99.90;;;;;;5039805;28;20527;-85
2023/11/24 01:27:53;;;;;;;6.28;1.73;;;9.50;99.90;;;;;;5023357;28;20387;-86
2023/11/24 01:30:18;;;;;;;7.85;2.03;;;9.50;99.90;;;;;;5022348;28;20460;-86
2023/11/24 01:32:44;;;;;;;5.90;2.15;;;9.50;99.90;;;;;;5039412;28;20141;-86
2023/11/24 01:35:10;;;;;;;7.40;1.77;;;9.50;99.90;;;;;;5039651;28;20025;-85
2023/11/24 01:37:35;;;;;;;7.07;1.90;;;9.50;99.90;;;;;;5039592;28;20039;-85
2023/11/24 01:40:03;;;;;;;6.63;1.60;;;9.50;99.90;;;;;;5056050;28;20105;-86
2023/11/24 01:42:29;;;;;;;6.35;1.65;;;9.50;99.90;;;;;;5039865;28;20025;-85
2023/11/24 01:44:54;;;;;;;8.68;2.05;;;9.50;99.90;;;;;;5055510;28;20027;-86
2023/11/24 01:47:21;;;;;;;6.72;2.00;;;9.50;99.90;;;;;;5055795;28;20128;-86
2023/11/24 01:49:47;;;;;;;7.88;2.00;;;9.40;99.90;;;;;;5056271;28;20341;-85
2023/11/24 01:52:14;;;;;;;9.90;2.10;;;9.40;99.90;;;;;;5023195;28;20024;-86
2023/11/24 01:54:41;;;;;;;6.85;1.73;;;9.40;99.90;;;;;;5039626;28;20100;-84
2023/11/24 01:57:07;;;;;;;8.05;1.77;;;9.30;99.90;;;;;;5073964;28;20024;-86
2023/11/24 01:59:35;;;;;;;6.38;1.77;;;9.30;99.90;;;;;;5055893;28;20027;-86
2023/11/24 02:02:00;;;;;;;7.25;1.77;;;9.30;99.90;;;;;;5084730;28;20016;-86
2023/11/24 02:04:26;;;;;;;6.18;1.70;;;9.30;99.90;;;;;;5063112;28;20023;-85
2023/11/24 02:06:53;;;;;;;8.23;2.20;;;9.30;99.90;;;;;;5097627;28;20055;-84
2023/11/24 02:09:19;;;;;;;7.47;2.38;;;9.30;99.90;;;;;;5098211;28;20012;-85
2023/11/24 02:11:44;;;;;;;7.22;1.90;;;9.30;99.90;;;;;;5064143;28;20020;-83
2023/11/24 02:14:10;;;;;;;12.07;2.10;;;9.30;99.90;;;;;;5078199;28;20028;-86
2023/11/24 02:16:36;;;;;;;7.53;1.85;;;9.30;99.90;;;;;;5045216;28;20475;-86
2023/11/24 02:19:01;;;;;;;8.13;2.20;;;9.20;99.90;;;;;;5055958;28;20418;-85
2023/11/24 02:21:28;;;;;;;6.38;2.10;;;9.20;99.90;;;;;;5055997;28;20464;-86
2023/11/24 02:23:54;;;;;;;7.68;2.10;;;9.30;99.90;;;;;;5055998;28;20078;-86
2023/11/24 02:26:19;;;;;;;7.40;1.73;;;9.30;99.90;;;;;;5039186;28;20029;-86
2023/11/24 02:28:45;;;;;;;7.43;1.70;;;9.20;99.90;;;;;;5039119;28;20040;-84
2023/11/24 02:31:11;;;;;;;6.65;1.67;;;9.20;99.90;;;;;;5073456;28;20486;-86
2023/11/24 02:33:40;;;;;;;9.07;1.65;;;9.20;99.90;;;;;;5055539;28;20056;-86
2023/11/24 02:36:08;;;;;;;8.65;1.88;;;9.20;99.90;;;;;;5055496;28;20036;-86
2023/11/24 02:38:34;;;;;;;10.55;1.88;;;9.10;99.90;;;;;;5055339;28;20033;-85
2023/11/24 02:41:01;;;;;;;5.45;2.00;;;9.10;99.90;;;;;;5055672;28;20025;-85
2023/11/24 02:43:27;;;;;;;8.90;2.13;;;9.10;99.90;;;;;;5057812;28;20025;-86
2023/11/24 02:45:53;;;;;;;7.50;2.10;;;9.10;99.90;;;;;;5077320;28;20036;-85
2023/11/24 02:48:19;;;;;;;5.10;1.50;;;9.00;99.90;;;;;;5077113;28;20029;-85
2023/11/24 02:50:44;;;;;;;7.72;1.88;;;9.00;99.90;;;;;;5043022;28;20024;-86
2023/11/24 02:53:10;;;;;;;4.55;1.38;;;9.00;99.90;;;;;;5059161;28;20024;-86
2023/11/24 02:55:36;;;;;;;8.05;1.90;;;9.00;99.90;;;;;;5076951;28;20020;-86
2023/11/24 02:58:01;;;;;;;4.60;1.65;;;9.00;99.90;;;;;;5041899;28;20029;-85
2023/11/24 03:00:27;;;;;;;7.35;1.80;;;9.00;99.90;;;;;;5058443;28;20082;-85
2023/11/24 03:02:53;;;;;;;6.60;1.33;;;9.00;99.90;;;;;;5059062;28;20084;-85
2023/11/24 03:05:19;;;;;;;8.63;2.13;;;8.90;99.90;;;;;;5042641;28;20048;-85
2023/11/24 03:07:44;;;;;;;5.68;1.85;;;9.00;99.90;;;;;;5076708;28;20048;-85
2023/11/24 03:10:11;;;;;;;5.65;1.90;;;9.00;99.90;;;;;;5042415;28;20029;-85
2023/11/24 03:12:37;;;;;;;5.32;1.55;;;9.00;99.90;;;;;;5059615;28;20074;-85
2023/11/24 03:15:04;;;;;;;4.15;2.03;;;8.90;99.90;;;;;;5077332;28;20104;-85
2023/11/24 03:17:30;;;;;;;5.32;1.30;;;8.90;99.90;;;;;;5059280;28;20443;-86
2023/11/24 03:19:55;;;;;;;5.93;1.30;;;9.00;99.90;;;;;;5059162;28;20075;-86
2023/11/24 03:22:21;;;;;;;3.10;1.30;;;8.90;99.90;;;;;;5059287;28;20097;-85
2023/11/24 03:24:46;;;;;;;5.63;1.73;;;8.90;99.90;;;;;;5042873;28;20028;-86
2023/11/24 03:27:12;;;;;;;5.60;1.85;;;8.90;99.90;;;;;;5058939;28;20029;-86
2023/11/24 03:29:39;;;;;;;6.22;1.50;;;8.90;99.90;;;;;;5026403;28;20032;-85
2023/11/24 03:32:05;;;;;;;7.05;1.88;;;8.90;99.90;;;;;;5078021;28;20025;-85
2023/11/24 03:34:32;;;;;;;7.88;1.85;;;8.80;99.90;;;;;;5065029;28;20031;-85
2023/11/24 03:36:57;;;;;;;5.55;1.40;;;8.80;99.90;;;;;;5083345;28;20024;-82
2023/11/24 03:39:23;;;;;;;5.28;1.52;;;8.80;99.90;;;;;;5083015;28;20021;-85
2023/11/24 03:41:49;;;;;;;6.18;1.40;;;8.80;99.90;;;;;;5061491;28;20070;-85
2023/11/24 03:44:14;;;;;;;12.68;2.33;;;8.80;99.90;;;;;;5026403;28;20039;-85
2023/11/24 03:46:40;;;;;;;8.82;2.00;;;8.80;99.90;;;;;;5025893;28;20388;-85
2023/11/24 03:49:08;;;;;;;6.75;1.27;;;8.80;99.90;;;;;;5041967;28;20044;-85
2023/11/24 03:51:34;;;;;;;6.53;1.23;;;8.80;99.90;;;;;;5058303;28;20368;-85
2023/11/24 03:54:00;;;;;;;7.53;1.90;;;8.80;99.90;;;;;;5040949;28;20414;-85
2023/11/24 03:56:25;;;;;;;13.70;2.67;;;8.80;99.90;;;;;;5041788;28;20037;-85
2023/11/24 03:58:51;;;;;;;5.93;2.00;;;8.80;99.90;;;;;;5025200;28;20021;-85
2023/11/24 04:01:17;;;;;;;6.40;1.20;;;8.80;99.90;;;;;;5024926;28;20372;-85
2023/11/24 04:03:46;;;;;;;8.40;1.73;;;8.80;99.90;;;;;;5076109;28;20024;-85
2023/11/24 04:06:13;;;;;;;5.53;1.70;;;8.80;99.90;;;;;;5075883;28;20029;-85
2023/11/24 04:08:39;;;;;;;5.50;1.70;;;8.80;99.90;;;;;;5041587;28;20045;-85
2023/11/24 04:11:05;;;;;;;3.47;1.35;;;8.80;99.90;;;;;;5057883;28;20035;-85
2023/11/24 04:13:31;;;;;;;4.38;1.25;;;8.90;99.90;;;;;;5057958;28;20039;-85
2023/11/24 04:15:57;;;;;;;10.27;1.48;;;8.90;99.90;;;;;;5075786;28;20107;-85
2023/11/24 04:18:22;;;;;;;5.93;1.33;;;8.90;99.90;;;;;;5058175;28;20487;-85
2023/11/24 04:20:50;;;;;;;5.57;1.00;;;8.90;99.90;;;;;;5057883;28;20039;-85
2023/11/24 04:23:17;;;;;;;5.53;1.48;;;8.90;99.90;;;;;;5057783;28;20482;-85
2023/11/24 04:25:46;;;;;;;6.72;1.58;;;8.90;99.90;;;;;;5058171;28;20024;-85
2023/11/24 04:28:14;;;;;;;6.65;1.50;;;8.90;99.90;;;;;;5075149;28;20060;-85
2023/11/24 04:30:40;;;;;;;4.55;1.02;;;8.90;99.90;;;;;;5024424;28;20024;-85
2023/11/24 04:33:06;;;;;;;5.97;1.38;;;8.90;99.90;;;;;;5024618;28;20372;-85
2023/11/24 04:35:32;;;;;;;5.20;1.63;;;8.90;99.90;;;;;;5057561;28;20032;-85
2023/11/24 04:37:58;;;;;;;5.80;1.52;;;8.90;99.90;;;;;;5040620;28;20040;-85
2023/11/24 04:40:24;;;;;;;6.47;1.52;;;8.80;99.90;;;;;;5075541;28;20103;-85
2023/11/24 04:42:51;;;;;;;5.18;1.35;;;8.80;99.90;;;;;;5040744;28;20063;-85
2023/11/24 04:45:17;;;;;;;6.50;1.60;;;8.80;99.90;;;;;;5075060;28;20039;-85
2023/11/24 04:47:43;;;;;;;7.28;1.45;;;8.70;99.90;;;;;;5057024;28;20032;-85
2023/11/24 04:50:09;;;;;;;5.38;1.38;;;8.70;99.90;;;;;;5040547;28;20036;-85
2023/11/24 04:52:35;;;;;;;3.30;0.93;;;8.70;99.90;;;;;;5040532;28;20024;-85
2023/11/24 04:55:01;;;;;;;4.85;1.38;;;8.70;99.90;;;;;;5057560;28;20027;-85
2023/11/24 04:57:26;;;;;;;5.95;1.45;;;8.70;99.90;;;;;;5057434;28;20143;-85
2023/11/24 04:59:52;;;;;;;6.53;1.45;;;8.70;99.90;;;;;;5069382;28;20050;-84
2023/11/24 05:02:18;;;;;;;7.68;1.88;;;8.60;99.90;;;;;;5064261;28;20075;-84
2023/11/24 05:04:43;;;;;;;8.48;2.17;;;8.60;99.90;;;;;;5098911;28;20034;-84
2023/11/24 05:07:09;;;;;;;5.20;1.73;;;8.60;99.90;;;;;;5098508;28;20032;-82
2023/11/24 05:09:36;;;;;;;4.45;1.33;;;8.60;99.90;;;;;;5061168;28;20012;-85
2023/11/24 05:12:03;;;;;;;6.43;1.27;;;8.50;99.90;;;;;;5065684;28;20098;-85
2023/11/24 05:14:29;;;;;;;4.13;1.00;;;8.50;99.90;;;;;;5057847;28;20033;-85
2023/11/24 05:16:55;;;;;;;4.55;1.23;;;8.50;99.90;;;;;;5023949;28;20029;-85
2023/11/24 05:19:20;;;;;;;5.30;1.35;;;8.50;99.90;;;;;;5056392;28;20029;-86
2023/11/24 05:21:46;;;;;;;5.18;1.70;;;8.40;99.90;;;;;;5023605;28;20029;-84
2023/11/24 05:24:12;;;;;;;5.20;1.20;;;8.40;99.90;;;;;;5056298;28;20384;-85
2023/11/24 05:26:37;;;;;;;2.88;0.88;;;8.40;99.90;;;;;;5039887;28;20033;-85
2023/11/24 05:29:03;;;;;;;2.53;1.00;;;8.40;99.90;;;;;;5039836;28;20039;-85
2023/11/24 05:31:29;;;;;;;5.85;1.58;;;8.40;99.90;;;;;;5039439;28;20039;-85
2023/11/24 05:33:55;;;;;;;4.60;1.20;;;8.40;99.90;;;;;;5023201;28;20032;-86
2023/11/24 05:36:22;;;;;;;3.85;1.60;;;8.50;99.90;;;;;;5056460;28;20117;-84
2023/11/24 05:38:47;;;;;;;5.15;1.63;;;8.50;99.90;;;;;;5040197;28;20106;-85
2023/11/24 05:41:16;;;;;;;5.22;1.20;;;8.40;99.90;;;;;;5039564;28;20426;-85
2023/11/24 05:43:43;;;;;;;4.53;1.02;;;8.40;99.90;;;;;;5056307;28;20025;-85
2023/11/24 05:46:08;;;;;;;4.53;1.00;;;8.50;99.90;;;;;;5039564;28;20025;-82
2023/11/24 05:48:34;;;;;;;5.45;1.30;;;8.50;99.90;;;;;;5056374;28;20021;-85
2023/11/24 05:51:00;;;;;;;9.18;1.15;;;8.50;99.90;;;;;;5039564;28;20029;-85
2023/11/24 05:53:25;;;;;;;6.93;1.42;;;8.50;99.90;;;;;;5073827;28;20024;-85
2023/11/24 05:55:52;;;;;;;7.03;1.45;;;8.40;99.90;;;;;;5039529;28;20029;-85
2023/11/24 05:58:18;;;;;;;6.05;1.70;;;8.30;99.90;;;;;;5055622;28;20025;-85
2023/11/24 06:00:44;;;;;;;6.10;1.45;;;8.30;99.90;;;;;;5022831;28;20033;-85
2023/11/24 06:03:12;;;;;;;5.28;1.45;;;8.20;99.90;;;;;;5039267;28;20056;-85
2023/11/24 06:05:38;;;;;;;7.50;1.45;;;8.20;99.90;;;;;;5039705;28;20025;-85
2023/11/24 06:08:04;;;;;;;11.80;2.25;;;8.10;99.90;;;;;;5055600;28;20408;-85
2023/11/24 06:10:31;;;;;;;6.00;2.17;;;8.00;99.90;;;;;;5055807;28;20116;-85
2023/11/24 06:12:57;;;;;;;5.07;1.30;;;8.00;99.90;;;;;;5039368;28;20044;-84
2023/11/24 06:15:23;;;;;;;5.32;1.42;;;8.00;99.90;;;;;;5038832;28;20028;-86
2023/11/24 06:17:49;;;;;;;6.40;1.38;;;8.00;99.90;;;;;;5039599;28;20032;-85
2023/11/24 06:20:18;;;;;;;5.63;1.50;;;8.00;99.90;;;;;;5039364;28;20409;-85
2023/11/24 06:22:44;;;;;;;6.38;1.35;;;8.10;99.90;;;;;;5039662;28;20483;-85
2023/11/24 06:25:10;;;;;;;6.53;1.83;;;8.10;99.90;;;;;;5055768;28;20426;-85
2023/11/24 06:27:36;;;;;;;6.28;1.40;;;8.10;99.90;;;;;;5039112;28;20040;-85
2023/11/24 06:30:05;;;;;;;7.13;1.05;;;8.10;99.90;;;;;;5077698;28;20059;-83
2023/11/24 06:32:31;;;;;;;4.07;1.38;;;8.10;99.90;;;;;;5080418;28;20005;-83
2023/11/24 06:34:57;;;;;;;4.97;1.25;;;8.10;99.90;;;;;;5080807;28;20012;-83
2023/11/24 06:37:23;;;;;;;4.80;1.23;;;8.20;99.90;;;;;;5064112;28;20096;-84
2023/11/24 06:39:49;;;;;;;4.43;1.60;;;8.10;99.90;;;;;;5068832;28;20040;-85
2023/11/24 06:42:14;;;;;;;3.33;0.90;;;8.10;99.90;;;;;;5056187;28;20043;-85
2023/11/24 06:44:40;;;;;;;3.50;1.02;;;8.20;99.90;;;;;;5055995;28;20119;-86
2023/11/24 06:47:07;;;;;;;4.80;1.50;;;8.20;99.90;;;;;;5038739;28;20068;-87
2023/11/24 06:49:32;;;;;;;5.40;1.35;;;8.10;99.90;;;;;;5073373;28;20119;-87
2023/11/24 06:52:01;;;;;;;5.32;1.05;;;8.20;99.90;;;;;;5073548;28;20056;-87
2023/11/24 06:54:29;;;;;;;5.90;1.23;;;8.10;99.90;;;;;;5055681;28;20059;-85
2023/11/24 06:56:55;;;;;;;4.10;1.10;;;8.10;99.90;;;;;;5055620;28;20032;-88
2023/11/24 06:59:22;;;;;;;4.32;1.15;;;8.00;99.90;;;;;;5038919;28;20044;-87
2023/11/24 07:01:48;;;;;;;2.75;0.77;;;8.00;99.90;;;;;;5039644;28;20452;-86
2023/11/24 07:04:14;;;;;;;6.53;1.20;;;8.00;99.90;;;;;;5038676;28;20086;-86
2023/11/24 07:06:40;;;;;;;6.70;1.48;;;7.90;99.90;;;;;;5054926;28;20029;-86
2023/11/24 07:09:05;;;;;;;6.63;1.67;;;7.90;99.90;;;;;;5056097;28;20016;-86
2023/11/24 07:11:31;;;;;;;5.13;1.27;;;7.80;99.90;;;;;;5054746;28;20035;-85
2023/11/24 07:13:56;;;;;;;6.65;1.45;;;7.90;99.90;;;;;;5073289;28;20025;-86
2023/11/24 07:16:22;;;;;;;6.28;1.67;;;7.80;99.90;;;;;;5055113;28;20392;-86
2023/11/24 07:18:48;;;;;;;5.00;1.40;;;7.80;99.90;;;;;;5038721;28;20478;-86
2023/11/24 07:21:15;;;;;;;6.15;1.55;;;7.70;99.90;;;;;;5055125;28;20025;-86
2023/11/24 07:23:41;;;;;;;5.35;1.27;;;7.70;99.90;;;;;;5038491;28;20032;-86
2023/11/24 07:26:08;;;;;;;4.68;1.15;;;7.80;99.90;;;;;;5055012;28;20024;-86
2023/11/24 07:28:38;;;;;;;5.63;1.20;;;7.80;99.90;;;;;;5058226;28;20092;-85
2023/11/24 07:31:04;;;;;;;4.97;1.27;;;7.70;99.90;;;;;;5058611;28;20086;-85
2023/11/24 07:33:33;;;;;;;6.90;1.42;;;7.70;99.90;;;;;;5042720;28;20470;-85
2023/11/24 07:35:59;;;;;;;4.32;1.38;;;7.60;99.90;;;;;;5076266;28;20039;-85
2023/11/24 07:38:25;;;;;;;6.18;1.95;;;7.60;99.90;;;;;;5058329;28;20021;-86
2023/11/24 07:40:51;;;;;;;6.63;1.35;;;7.60;99.90;;;;;;5058731;28;20044;-86
2023/11/24 07:43:17;;;;;;;6.32;1.45;;;7.60;99.90;;;;;;5058587;28;20035;-85
2023/11/24 07:45:48;;;;;;;5.22;1.80;;;7.50;99.90;;;;;;5058545;28;20043;-86
2023/11/24 07:48:15;;;;;;;5.40;0.98;;;7.50;99.90;;;;;;5058952;28;20103;-86
2023/11/24 07:50:41;;;;;;;7.25;1.63;;;7.50;99.90;;;;;;5025808;28;20028;-86
2023/11/24 07:53:06;;;;;;;4.43;1.05;;;7.50;99.90;;;;;;5042843;28;20032;-85
2023/11/24 07:55:32;;;;;;;7.63;1.55;;;7.50;99.90;;;;;;5043900;28;20507;-86
2023/11/24 07:57:57;;;;;;;7.88;1.40;;;7.50;99.90;;;;;;5054493;28;20013;-86
2023/11/24 08:00:24;;;;;;;5.53;1.17;;;7.50;99.90;;;;;;5082850;28;20025;-87
2023/11/24 08:02:49;;;;;;;7.22;1.20;;;7.60;99.90;;;;;;5050120;28;20028;-86
2023/11/24 08:05:16;;;;;;;4.25;0.98;;;7.50;99.90;;;;;;5095358;28;20198;-88
2023/11/24 08:07:44;;;;;;;6.30;1.15;;;7.50;99.90;;;;;;5044079;28;20057;-86
2023/11/24 08:10:10;;;;;;;5.07;1.17;;;7.60;99.90;;;;;;5039295;28;20032;-87
2023/11/24 08:12:36;;;;;;;4.03;1.35;;;7.60;99.90;;;;;;5055181;28;20052;-86
2023/11/24 08:15:01;;;;;;;5.15;1.20;;;7.50;99.90;;;;;;5038002;28;20377;-86
2023/11/24 08:17:28;;;;;;;5.38;1.40;;;7.50;99.90;;;;;;5022004;28;20048;-87
2023/11/24 08:19:54;;;;;;;3.42;1.00;;;7.50;99.90;;;;;;5054936;28;20028;-87
2023/11/24 08:22:20;;;;;;;4.22;0.90;;;7.60;99.90;;;;;;5055342;28;20032;-86
2023/11/24 08:24:45;;;;;;;2.22;0.75;;;7.60;99.90;;;;;;5055534;28;20021;-86
2023/11/24 08:27:11;;;;;;;5.60;1.33;;;7.60;99.90;;;;;;5038210;28;20129;-87
2023/11/24 08:29:37;;;;;;;4.15;1.05;;;7.50;99.90;;;;;;5038247;28;20036;-86
2023/11/24 08:32:03;;;;;;;6.78;1.55;;;7.40;99.90;;;;;;5038035;28;20029;-86
2023/11/24 08:34:29;;;;;;;3.72;1.20;;;7.40;99.90;;;;;;5038104;28;20037;-86
2023/11/24 08:36:54;;;;;;;4.88;0.77;;;7.30;99.90;;;;;;5037951;28;20029;-87
2023/11/24 08:39:21;;;;;;;3.47;0.90;;;7.20;99.90;;;;;;5037256;28;20025;-88
2023/11/24 08:41:50;;;;;;;2.75;0.98;;;7.20;99.90;;;;;;5054730;28;20029;-87
2023/11/24 08:44:16;;;;;;;3.55;0.65;;;7.20;99.90;;;;;;5038208;28;20052;-87
2023/11/24 08:46:42;;;;;;;2.78;0.60;;;7.30;99.90;;;;;;5054573;28;20025;-86
2023/11/24 08:49:10;;;;;;;1.73;0.70;;;7.30;99.90;;;;;;5054499;28;20029;-87
2023/11/24 08:51:36;;;;;;;3.25;0.57;;;7.30;99.90;;;;;;5038058;28;20037;-86
2023/11/24 08:54:03;;;;;;;2.15;0.65;;;7.30;99.90;;;;;;5038058;28;20029;-87
2023/11/24 08:56:29;;;;;;;3.08;0.65;;;7.20;99.90;;;;;;5054261;28;20036;-86
2023/11/24 08:58:55;;;;;;;2.30;0.80;;;7.20;99.90;;;;;;5054904;28;20028;-86
2023/11/24 09:01:21;;;;;;;2.50;0.85;;;7.20;99.90;;;;;;5021107;28;20029;-86
2023/11/24 09:03:46;;;;;;;3.70;0.47;;;7.20;99.90;;;;;;5037178;28;20025;-85
2023/11/24 09:06:13;;;;;;;2.75;0.40;;;7.10;99.90;;;;;;5053818;28;20132;-85
2023/11/24 09:08:40;;;;;;;4.25;0.90;;;7.20;99.90;;;;;;5037190;28;20075;-85
2023/11/24 09:11:07;;;;;;;3.30;0.68;;;7.20;99.90;;;;;;5055084;28;20090;-86
2023/11/24 09:13:34;;;;;;;2.55;0.70;;;7.20;99.90;;;;;;5037439;28;20035;-86
2023/11/24 09:16:02;;;;;;;4.30;0.98;;;7.20;99.90;;;;;;5037038;28;20025;-87
2023/11/24 09:18:27;;;;;;;3.00;0.70;;;7.30;99.90;;;;;;5037835;28;20021;-85
2023/11/24 09:20:55;;;;;;;3.38;0.75;;;7.30;99.90;;;;;;5053858;28;20055;-86
2023/11/24 09:23:21;;;;;;;3.08;0.90;;;7.40;99.90;;;;;;5056275;28;20522;-85
2023/11/24 09:25:48;;;;;;;2.15;0.80;;;7.40;99.90;;;;;;5074647;28;20049;-85
2023/11/24 09:28:16;;;;;;;3.03;0.70;;;7.40;99.90;;;;;;5042237;28;20063;-86
2023/11/24 09:30:42;;;;;;;2.47;0.60;;;7.40;99.90;;;;;;5060276;28;20017;-84
2023/11/24 09:33:08;;;;;;;3.78;0.88;;;7.50;99.90;;;;;;5051640;28;20112;-86
2023/11/24 09:35:34;;;;;;;1.98;0.77;;;7.50;99.90;;;;;;5024175;28;20373;-86
2023/11/24 09:38:00;;;;;;;1.25;0.60;;;7.50;99.90;;;;;;5022972;28;20029;-86
2023/11/24 09:40:26;;;;;;;5.50;1.13;;;7.60;99.90;;;;;;5037186;28;20037;-87
2023/11/24 09:42:52;;;;;;;3.25;0.85;;;7.60;99.90;;;;;;5053272;28;20048;-86
2023/11/24 09:45:19;;;;;;;3.20;0.60;;;7.60;99.90;;;;;;5036509;28;20025;-86
2023/11/24 09:47:49;;;;;;;2.42;0.70;;;7.70;99.90;;;;;;5020036;28;20033;-86
2023/11/24 09:50:25;;;;;;;1.27;0.60;;;7.70;99.90;;;;;;5054007;28;20017;-86
2023/11/24 09:52:54;;;;;;;3.72;1.50;;;7.70;99.90;;;;;;5036327;28;20026;-85
2023/11/24 09:55:23;;;;;;;6.72;1.13;;;7.80;99.90;;;;;;5052955;28;20498;-86
2023/11/24 09:57:53;;;;;;;2.95;0.82;;;7.80;99.90;;;;;;5052426;28;20117;-85
2023/11/24 10:00:23;;;;;;;7.38;1.88;;;7.80;99.90;;;;;;5036823;28;20032;-85
2023/11/24 10:02:51;;;;;;;4.03;0.70;;;7.80;99.90;;;;;;5054102;28;20029;-86
2023/11/24 10:05:18;;;;;;;2.83;1.00;;;7.80;99.90;;;;;;5053822;28;20415;-86
2023/11/24 10:07:50;;;;;;;4.28;0.77;;;7.90;99.90;;;;;;5064996;28;20060;-85
2023/11/24 10:10:22;;;;;;;3.08;0.70;;;8.00;99.90;;;;;;5039580;28;20032;-85
2023/11/24 10:12:50;;;;;;;3.88;0.73;;;8.00;99.90;;;;;;5055945;28;20503;-86
2023/11/24 10:15:17;;;;;;;6.90;0.90;;;8.00;99.90;;;;;;5056003;28;20444;-85
2023/11/24 10:17:45;;;;;;;4.18;1.25;;;8.00;99.90;;;;;;5039497;28;20472;-85
2023/11/24 10:20:11;;;;;;;4.35;0.70;;;8.00;99.90;;;;;;5023466;28;20081;-86
2023/11/24 10:22:40;;;;;;;3.95;1.00;;;8.00;99.90;;;;;;5055897;28;20051;-85
2023/11/24 10:25:10;;;;;;;2.70;1.10;;;7.90;99.90;;;;;;5073813;28;20032;-86
2023/11/24 10:27:36;;;;;;;4.00;0.75;;;7.90;99.90;;;;;;5056751;28;20032;-86
2023/11/24 10:30:04;;;;;;;2.85;0.90;;;7.90;99.90;;;;;;5022596;28;20027;-85
2023/11/24 10:32:30;;;;;;;5.60;1.17;;;7.80;99.90;;;;;;5055601;28;20110;-86
2023/11/24 10:34:57;;;;;;;5.93;1.27;;;7.90;99.90;;;;;;5039109;28;20476;-85
2023/11/24 10:37:24;;;;;;;2.47;0.73;;;7.80;99.90;;;;;;5055610;28;20025;-85
2023/11/24 10:39:53;;;;;;;3.63;0.80;;;7.70;99.90;;;;;;5039492;28;20032;-83
2023/11/24 10:42:20;;;;;;;3.00;0.70;;;7.70;99.90;;;;;;5055884;28;20032;-87
2023/11/24 10:44:54;;;;;;;1.67;0.60;;;7.60;99.90;;;;;;5074164;28;20078;-86
2023/11/24 10:47:31;;;;;;;3.35;1.02;;;7.70;99.90;;;;;;5056347;28;20455;-86
2023/11/24 10:50:08;;;;;;;2.65;0.63;;;7.70;99.90;;;;;;5075011;28;20033;-87
2023/11/24 10:52:41;;;;;;;1.98;0.40;;;7.70;99.90;;;;;;5096842;28;20028;-86
2023/11/24 10:55:10;;;;;;;2.13;0.57;;;7.70;99.90;;;;;;5097847;28;20015;-86
2023/11/24 10:57:36;;;;;;;3.33;0.80;;;7.70;99.90;;;;;;5080551;28;20046;-86
2023/11/24 11:00:08;;;;;;;4.97;0.70;;;7.80;99.90;;;;;;5073564;28;20452;-87
2023/11/24 11:02:39;;;;;;;3.15;0.90;;;7.80;99.90;;;;;;5058671;28;20031;-86
2023/11/24 11:05:13;;;;;;;;;;;7.90;99.90;;;;;;5060140;28;20020;-87
2023/11/24 11:08:03;;;;;;;5.80;1.13;;;8.00;99.90;;;;;;5059426;28;19913;-87
2023/11/24 11:10:36;;;;;;;4.13;1.00;;;8.10;99.90;;;;;;5059635;28;20028;-87
2023/11/24 11:13:03;;;;;;;3.75;0.77;;;8.10;99.90;;;;;;5077420;28;20471;-87
2023/11/24 11:15:34;;;;;;;4.80;1.20;;;8.10;99.90;;;;;;5077301;28;20032;-86
2023/11/24 11:18:10;;;;;;;5.97;1.30;;;8.20;99.90;;;;;;5077165;28;20059;-87
2023/11/24 11:20:40;;;;;;;5.38;1.30;;;8.10;99.90;;;;;;5076628;28;20376;-85
2023/11/24 11:23:14;;;;;;;5.38;1.20;;;8.10;99.90;;;;;;5059121;28;20056;-86
2023/11/24 11:25:46;;;;;;;4.95;1.35;;;8.20;99.90;;;;;;5043626;28;20031;-87
2023/11/24 11:28:17;;;;;;;9.07;1.50;;;8.20;99.90;;;;;;5043077;28;20020;-85
2023/11/24 11:30:45;;;;;;;7.45;1.77;;;8.30;99.90;;;;;;5058368;28;20051;-85
2023/11/24 11:33:14;;;;;;;7.82;1.70;;;8.30;99.90;;;;;;5058484;28;20365;-85
2023/11/24 11:35:44;;;;;;;9.88;2.13;;;8.30;99.90;;;;;;5076366;28;20122;-84
2023/11/24 11:38:13;;;;;;;7.15;1.92;;;8.30;99.90;;;;;;5041971;28;20047;-85
2023/11/24 11:40:45;;;;;;;6.75;1.98;;;8.20;99.90;;;;;;5059040;28;20036;-85
2023/11/24 11:43:15;;;;;;;9.35;1.83;;;8.30;99.90;;;;;;5058267;28;20024;-86
2023/11/24 11:45:57;;;;;;;6.53;2.00;;;8.30;99.90;;;;;;5041613;28;20027;-84
2023/11/24 11:48:22;;;;;;;;;;;8.40;99.90;;;;;;5058624;28;20029;-85
2023/11/24 11:50:59;;;;;;;8.23;1.80;;;8.50;99.90;;;;;;5057931;28;19917;-85
2023/11/24 11:53:28;;;;;;;10.15;2.03;;;8.60;99.90;;;;;;5075624;28;20488;-86
2023/11/24 11:55:59;;;;;;;8.20;2.92;;;8.60;99.90;;;;;;5058321;28;20111;-88
2023/11/24 11:58:25;;;;;;;9.70;3.90;;;8.60;99.90;;;;;;5058206;28;20031;-86
2023/11/24 12:00:54;;;;;;;12.77;3.17;;;8.70;99.90;;;;;;5075845;28;20052;-86
2023/11/24 12:03:22;;;;;;;9.43;2.25;;;8.80;99.90;;;;;;5041276;28;20024;-86
2023/11/24 12:05:50;;;;;;;10.30;2.17;;;8.80;99.90;;;;;;5042150;28;20028;-85
2023/11/24 12:08:21;;;;;;;10.23;2.33;;;8.90;99.90;;;;;;5057755;28;20052;-86
2023/11/24 12:10:46;;;;;;;8.53;2.57;;;9.00;99.90;;;;;;5076056;28;20028;-85
2023/11/24 12:13:12;;;;;;;6.75;2.38;;;9.00;99.90;;;;;;5024711;28;20275;-86
2023/11/24 12:15:38;;;;;;;8.30;2.30;;;9.10;99.90;;;;;;5075850;28;20032;-86
2023/11/24 12:18:07;;;;;;;9.50;2.13;;;9.20;99.90;;;;;;5059205;28;20086;-86
2023/11/24 12:20:36;;;;;;;10.15;2.20;;;9.20;99.90;;;;;;5095235;28;20016;-87
2023/11/24 12:23:08;;;;;;;9.25;2.28;;;9.20;99.90;;;;;;5065341;28;20047;-85
2023/11/24 12:25:34;;;;;;;;;;;9.20;99.90;;;;;;5082196;28;20048;-86
2023/11/24 12:28:10;;;;;;;10.40;2.60;;;9.20;99.90;;;;;;5094630;28;19919;-86
2023/11/24 12:30:42;;;;;;;9.95;2.35;;;9.20;99.90;;;;;;5077899;28;20409;-85
2023/11/24 12:33:20;;;;;;;7.57;2.25;;;9.20;99.90;;;;;;5042118;28;20479;-84
2023/11/24 12:35:51;;;;;;;9.30;2.72;;;9.10;99.90;;;;;;5057753;28;20031;-86
2023/11/24 12:38:17;;;;;;;10.23;2.25;;;9.10;99.90;;;;;;5057777;28;20123;-86
2023/11/24 12:40:44;;;;;;;7.35;2.08;;;9.10;99.90;;;;;;5041478;28;20031;-87
2023/11/24 12:43:17;;;;;;;9.85;2.63;;;9.00;99.90;;;;;;5075615;28;20035;-83
2023/11/24 12:45:43;;;;;;;13.38;2.70;;;9.00;99.90;;;;;;5058528;28;20028;-86
2023/11/24 12:48:17;;;;;;;10.15;2.65;;;9.00;99.90;;;;;;5041253;28;20106;-86
2023/11/24 12:50:47;;;;;;;10.65;2.55;;;9.00;99.90;;;;;;5075192;28;20075;-87
2023/11/24 12:53:16;;;;;;;6.10;2.35;;;9.00;99.90;;;;;;5057345;28;20021;-86
2023/11/24 12:55:43;;;;;;;7.18;2.25;;;8.90;99.90;;;;;;5057297;28;20026;-85